KRIC/RIC METAR and TAF weather

Enter ICAO airport designator
Station Type Date Time Source
KRIC METAR 2019/04/25 01:54 UTC NOAA

KRIC 250154Z 04005KT 10SM FEW075 FEW300 20/16 A2986 RMK AO2 SLP116 T02000156


Station Type Date Time Source
KRIC Decoded METAR 2019/04/25 01:54 UTC NOAA

RICHMOND INTERNATIONAL AIRPORT, VA, United States (KRIC) 37-31N 077-19W 50M
Apr 24, 2019 - 09:54 PM EDT / 2019.04.25 0154 UTC
Wind: from the NE (040 degrees) at 6 MPH (5 KT):0
Visibility: 10 mile(s):0
Sky conditions: mostly clear
Temperature: 68.0 F (20.0 C)
Dew Point: 60.1 F (15.6 C)
Relative Humidity: 75%
Pressure (altimeter): 29.86 in. Hg (1011 hPa)
ob: KRIC 250154Z 04005KT 10SM FEW075 FEW300 20/16 A2986 RMK AO2 SLP116 T02000156
cycle: 2

Station Type Date Time Source
KRIC TAF 2019/04/24 18:45 UTC NOAA

TAF KRIC 241743Z 2418/2518 32011G18KT P6SM SCT060 BKN200
FM242100 30010KT P6SM SCT060 BKN150
FM242300 04004KT P6SM BKN060
FM251400 13005KT P6SM BKN100

Example: see airport list